sensor_id;sensor_type;location;lat;lon;timestamp;pressure;altitude;pressure_sealevel;temperature;humidity
71857;BME280;63344;46.980;28.882;2022-12-29T00:00:22;101849.44;;;-2.20;84.42
71857;BME280;63344;46.980;28.882;2022-12-29T00:03:10;101845.81;;;-2.25;84.12
71857;BME280;63344;46.980;28.882;2022-12-29T00:05:38;101839.50;;;-2.32;83.33
71857;BME280;63344;46.980;28.882;2022-12-29T00:08:05;101838.69;;;-2.31;83.58
71857;BME280;63344;46.980;28.882;2022-12-29T00:10:33;101825.56;;;-2.34;83.03
71857;BME280;63344;46.980;28.882;2022-12-29T00:13:01;101827.22;;;-2.36;83.22
71857;BME280;63344;46.980;28.882;2022-12-29T00:15:46;101814.66;;;-2.49;82.53
71857;BME280;63344;46.980;28.882;2022-12-29T00:18:14;101810.91;;;-2.57;82.21
71857;BME280;63344;46.980;28.882;2022-12-29T00:20:41;101803.84;;;-2.62;83.13
71857;BME280;63344;46.980;28.882;2022-12-29T00:23:27;101803.84;;;-2.62;83.77
71857;BME280;63344;46.980;28.882;2022-12-29T00:26:16;101800.19;;;-2.67;83.58
71857;BME280;63344;46.980;28.882;2022-12-29T00:29:03;101802.06;;;-2.63;83.86
71857;BME280;63344;46.980;28.882;2022-12-29T00:31:49;101809.84;;;-2.63;84.67
71857;BME280;63344;46.980;28.882;2022-12-29T00:34:38;101811.88;;;-2.54;84.87
71857;BME280;63344;46.980;28.882;2022-12-29T00:37:24;101813.66;;;-2.53;84.55
71857;BME280;63344;46.980;28.882;2022-12-29T00:40:12;101791.81;;;-2.58;84.68
71857;BME280;63344;46.980;28.882;2022-12-29T00:42:59;101798.72;;;-2.58;84.18
71857;BME280;63344;46.980;28.882;2022-12-29T00:45:45;101783.66;;;-2.69;83.24
71857;BME280;63344;46.980;28.882;2022-12-29T00:48:12;101779.19;;;-2.73;83.21
71857;BME280;63344;46.980;28.882;2022-12-29T00:50:39;101789.19;;;-2.84;82.90
71857;BME280;63344;46.980;28.882;2022-12-29T00:53:07;101773.50;;;-2.87;82.84
71857;BME280;63344;46.980;28.882;2022-12-29T00:55:37;101762.78;;;-2.96;83.05
71857;BME280;63344;46.980;28.882;2022-12-29T00:58:05;101767.97;;;-2.96;83.13
71857;BME280;63344;46.980;28.882;2022-12-29T01:00:33;101756.66;;;-2.98;83.21
71857;BME280;63344;46.980;28.882;2022-12-29T01:03:00;101762.84;;;-2.94;83.93
71857;BME280;63344;46.980;28.882;2022-12-29T01:05:28;101745.31;;;-2.74;84.97
71857;BME280;63344;46.980;28.882;2022-12-29T01:07:57;101742.44;;;-2.56;84.90
71857;BME280;63344;46.980;28.882;2022-12-29T01:10:24;101749.78;;;-2.45;84.50
71857;BME280;63344;46.980;28.882;2022-12-29T01:12:51;101731.44;;;-2.49;84.46
71857;BME280;63344;46.980;28.882;2022-12-29T01:15:19;101733.13;;;-2.50;84.55
71857;BME280;63344;46.980;28.882;2022-12-29T01:17:47;101748.09;;;-2.43;84.49
71857;BME280;63344;46.980;28.882;2022-12-29T01:20:14;101743.50;;;-2.51;84.77
71857;BME280;63344;46.980;28.882;2022-12-29T01:22:42;101744.22;;;-2.55;85.21
71857;BME280;63344;46.980;28.882;2022-12-29T01:25:10;101748.59;;;-2.54;84.85
71857;BME280;63344;46.980;28.882;2022-12-29T01:27:37;101752.91;;;-2.55;85.43
71857;BME280;63344;46.980;28.882;2022-12-29T01:30:05;101742.19;;;-2.64;85.11
71857;BME280;63344;46.980;28.882;2022-12-29T01:32:33;101754.47;;;-2.60;85.57
71857;BME280;63344;46.980;28.882;2022-12-29T01:35:00;101755.41;;;-2.58;85.80
71857;BME280;63344;46.980;28.882;2022-12-29T01:37:27;101758.94;;;-2.56;85.90
71857;BME280;63344;46.980;28.882;2022-12-29T01:39:54;101750.25;;;-2.56;85.66
71857;BME280;63344;46.980;28.882;2022-12-29T01:42:25;101757.47;;;-2.48;86.26
71857;BME280;63344;46.980;28.882;2022-12-29T01:44:58;101755.91;;;-2.43;86.17
71857;BME280;63344;46.980;28.882;2022-12-29T01:47:44;101744.63;;;-2.43;85.56
71857;BME280;63344;46.980;28.882;2022-12-29T01:50:12;101743.97;;;-2.36;85.60
71857;BME280;63344;46.980;28.882;2022-12-29T01:52:54;101740.56;;;-2.35;85.64
71857;BME280;63344;46.980;28.882;2022-12-29T01:55:24;101727.69;;;-2.30;85.57
71857;BME280;63344;46.980;28.882;2022-12-29T01:57:56;101719.06;;;-2.29;85.12
71857;BME280;63344;46.980;28.882;2022-12-29T02:00:26;101715.59;;;-2.28;85.05
71857;BME280;63344;46.980;28.882;2022-12-29T02:02:54;101723.41;;;-2.28;85.14
71857;BME280;63344;46.980;28.882;2022-12-29T02:05:39;101734.75;;;-2.26;84.74
71857;BME280;63344;46.980;28.882;2022-12-29T02:08:09;101727.78;;;-2.27;84.63
71857;BME280;63344;46.980;28.882;2022-12-29T02:10:39;101720.81;;;-2.28;84.39
71857;BME280;63344;46.980;28.882;2022-12-29T02:13:07;101719.88;;;-2.30;84.29
71857;BME280;63344;46.980;28.882;2022-12-29T02:26:51;101711.31;;;-2.55;83.67
71857;BME280;63344;46.980;28.882;2022-12-29T02:32:21;101702.84;;;-2.48;84.37
71857;BME280;63344;46.980;28.882;2022-12-29T02:43:14;101713.06;;;-2.27;84.15
71857;BME280;63344;46.980;28.882;2022-12-29T02:45:54;101696.19;;;-2.39;83.91
71857;BME280;63344;46.980;28.882;2022-12-29T02:48:41;101688.81;;;-2.53;83.76
71857;BME280;63344;46.980;28.882;2022-12-29T02:51:18;101699.84;;;-2.60;83.74
71857;BME280;63344;46.980;28.882;2022-12-29T02:53:48;101692.59;;;-2.70;83.69
71857;BME280;63344;46.980;28.882;2022-12-29T02:56:34;101684.72;;;-2.73;83.75
71857;BME280;63344;46.980;28.882;2022-12-29T02:59:02;101693.53;;;-2.68;84.36
71857;BME280;63344;46.980;28.882;2022-12-29T03:04:56;101700.59;;;-2.64;84.20
71857;BME280;63344;46.980;28.882;2022-12-29T03:14:06;101681.25;;;-2.72;84.27
71857;BME280;63344;46.980;28.882;2022-12-29T03:16:59;101689.13;;;-2.71;84.43
71857;BME280;63344;46.980;28.882;2022-12-29T03:19:33;101682.88;;;-2.76;84.44
71857;BME280;63344;46.980;28.882;2022-12-29T03:22:06;101684.94;;;-2.66;84.73
71857;BME280;63344;46.980;28.882;2022-12-29T03:25:13;101674.69;;;-2.61;85.45
71857;BME280;63344;46.980;28.882;2022-12-29T03:27:48;101687.97;;;-2.52;85.09
71857;BME280;63344;46.980;28.882;2022-12-29T03:30:17;101694.09;;;-2.50;84.38
71857;BME280;63344;46.980;28.882;2022-12-29T03:32:48;101691.38;;;-2.54;84.48
71857;BME280;63344;46.980;28.882;2022-12-29T03:35:19;101682.63;;;-2.56;84.14
71857;BME280;63344;46.980;28.882;2022-12-29T03:37:58;101673.03;;;-2.59;84.33
71857;BME280;63344;46.980;28.882;2022-12-29T03:40:27;101667.66;;;-2.65;84.13
71857;BME280;63344;46.980;28.882;2022-12-29T03:42:55;101675.31;;;-2.68;83.91
71857;BME280;63344;46.980;28.882;2022-12-29T03:45:23;101687.44;;;-2.69;84.47
71857;BME280;63344;46.980;28.882;2022-12-29T03:47:53;101683.91;;;-2.71;84.26
71857;BME280;63344;46.980;28.882;2022-12-29T03:50:21;101696.31;;;-2.62;84.56
71857;BME280;63344;46.980;28.882;2022-12-29T03:52:48;101683.50;;;-2.57;85.04
71857;BME280;63344;46.980;28.882;2022-12-29T03:55:15;101681.09;;;-2.51;84.97
71857;BME280;63344;46.980;28.882;2022-12-29T03:57:44;101678.63;;;-2.47;85.02
71857;BME280;63344;46.980;28.882;2022-12-29T04:00:13;101672.34;;;-2.53;84.42
71857;BME280;63344;46.980;28.882;2022-12-29T04:02:41;101671.44;;;-2.54;84.57
71857;BME280;63344;46.980;28.882;2022-12-29T04:05:11;101685.69;;;-2.43;85.07
71857;BME280;63344;46.980;28.882;2022-12-29T04:07:38;101675.47;;;-2.36;85.06
71857;BME280;63344;46.980;28.882;2022-12-29T04:10:09;101663.38;;;-2.34;84.80
71857;BME280;63344;46.980;28.882;2022-12-29T04:12:37;101667.03;;;-2.29;85.07
71857;BME280;63344;46.980;28.882;2022-12-29T04:15:04;101658.09;;;-2.37;84.55
71857;BME280;63344;46.980;28.882;2022-12-29T04:17:32;101664.06;;;-2.40;84.67
71857;BME280;63344;46.980;28.882;2022-12-29T04:20:00;101678.00;;;-2.38;85.13
71857;BME280;63344;46.980;28.882;2022-12-29T04:22:45;101661.41;;;-2.43;85.26
71857;BME280;63344;46.980;28.882;2022-12-29T04:25:14;101675.22;;;-2.44;84.83
71857;BME280;63344;46.980;28.882;2022-12-29T04:27:41;101642.81;;;-2.55;85.08
71857;BME280;63344;46.980;28.882;2022-12-29T04:30:16;101644.69;;;-2.51;85.52
71857;BME280;63344;46.980;28.882;2022-12-29T04:32:45;101634.28;;;-2.51;85.18
71857;BME280;63344;46.980;28.882;2022-12-29T04:35:30;101647.47;;;-2.45;85.32
71857;BME280;63344;46.980;28.882;2022-12-29T04:37:57;101637.19;;;-2.41;85.74
71857;BME280;63344;46.980;28.882;2022-12-29T04:40:24;101621.63;;;-2.39;85.45
71857;BME280;63344;46.980;28.882;2022-12-29T04:42:54;101622.44;;;-2.42;85.45
71857;BME280;63344;46.980;28.882;2022-12-29T04:45:22;101635.47;;;-2.40;85.42
71857;BME280;63344;46.980;28.882;2022-12-29T04:47:49;101611.97;;;-2.43;85.96
71857;BME280;63344;46.980;28.882;2022-12-29T04:50:17;101624.25;;;-2.39;86.29
71857;BME280;63344;46.980;28.882;2022-12-29T04:52:44;101630.50;;;-2.32;86.28
71857;BME280;63344;46.980;28.882;2022-12-29T04:55:20;101622.56;;;-2.37;86.40
71857;BME280;63344;46.980;28.882;2022-12-29T04:57:49;101628.94;;;-2.27;86.71
71857;BME280;63344;46.980;28.882;2022-12-29T05:00:16;101637.84;;;-2.19;86.72
71857;BME280;63344;46.980;28.882;2022-12-29T05:02:44;101640.44;;;-2.19;86.85
71857;BME280;63344;46.980;28.882;2022-12-29T05:05:12;101635.19;;;-2.21;86.34
71857;BME280;63344;46.980;28.882;2022-12-29T05:07:41;101628.25;;;-2.20;86.25
71857;BME280;63344;46.980;28.882;2022-12-29T05:10:10;101631.72;;;-2.21;86.41
71857;BME280;63344;46.980;28.882;2022-12-29T05:12:40;101639.59;;;-2.18;86.84
71857;BME280;63344;46.980;28.882;2022-12-29T05:15:14;101647.63;;;-2.10;86.28
71857;BME280;63344;46.980;28.882;2022-12-29T05:18:15;101654.69;;;-2.06;86.42
71857;BME280;63344;46.980;28.882;2022-12-29T05:20:46;101654.63;;;-2.09;86.34
71857;BME280;63344;46.980;28.882;2022-12-29T05:23:28;101665.91;;;-2.09;86.30
71857;BME280;63344;46.980;28.882;2022-12-29T05:25:55;101651.91;;;-2.12;85.87
71857;BME280;63344;46.980;28.882;2022-12-29T05:28:22;101647.56;;;-2.12;86.38
71857;BME280;63344;46.980;28.882;2022-12-29T05:30:50;101654.75;;;-2.05;86.10
71857;BME280;63344;46.980;28.882;2022-12-29T05:33:19;101661.56;;;-2.08;86.31
71857;BME280;63344;46.980;28.882;2022-12-29T05:35:47;101645.78;;;-2.14;86.06
71857;BME280;63344;46.980;28.882;2022-12-29T05:38:15;101661.63;;;-2.07;86.07
71857;BME280;63344;46.980;28.882;2022-12-29T05:41:00;101651.97;;;-2.11;86.05
71857;BME280;63344;46.980;28.882;2022-12-29T05:43:27;101658.84;;;-2.13;85.88
71857;BME280;63344;46.980;28.882;2022-12-29T05:45:55;101664.22;;;-2.07;85.66
71857;BME280;63344;46.980;28.882;2022-12-29T05:48:25;101655.38;;;-2.13;85.78
71857;BME280;63344;46.980;28.882;2022-12-29T05:50:57;101672.84;;;-2.09;85.81
71857;BME280;63344;46.980;28.882;2022-12-29T05:53:25;101672.66;;;-2.14;85.85
71857;BME280;63344;46.980;28.882;2022-12-29T05:55:52;101668.38;;;-2.13;86.16
71857;BME280;63344;46.980;28.882;2022-12-29T05:58:20;101680.66;;;-2.08;85.89
71857;BME280;63344;46.980;28.882;2022-12-29T06:00:51;101669.44;;;-2.07;86.05
71857;BME280;63344;46.980;28.882;2022-12-29T06:03:20;101673.75;;;-2.07;86.11
71857;BME280;63344;46.980;28.882;2022-12-29T06:06:05;101673.84;;;-2.04;85.66
71857;BME280;63344;46.980;28.882;2022-12-29T06:08:39;101679.78;;;-2.08;85.60
71857;BME280;63344;46.980;28.882;2022-12-29T06:11:08;101680.88;;;-2.02;85.75
71857;BME280;63344;46.980;28.882;2022-12-29T06:13:39;101675.66;;;-2.02;85.97
71857;BME280;63344;46.980;28.882;2022-12-29T06:16:09;101685.41;;;-1.94;85.86
71857;BME280;63344;46.980;28.882;2022-12-29T06:18:37;101684.72;;;-1.89;86.29
71857;BME280;63344;46.980;28.882;2022-12-29T06:21:06;101691.81;;;-1.83;86.31
71857;BME280;63344;46.980;28.882;2022-12-29T06:23:35;101688.38;;;-1.82;86.05
71857;BME280;63344;46.980;28.882;2022-12-29T06:26:03;101682.34;;;-1.81;86.03
71857;BME280;63344;46.980;28.882;2022-12-29T06:28:30;101683.31;;;-1.77;86.17
71857;BME280;63344;46.980;28.882;2022-12-29T06:30:57;101686.09;;;-1.70;86.05
71857;BME280;63344;46.980;28.882;2022-12-29T06:33:27;101701.94;;;-1.64;86.12
71857;BME280;63344;46.980;28.882;2022-12-29T06:35:56;101696.78;;;-1.61;86.03
71857;BME280;63344;46.980;28.882;2022-12-29T06:38:32;101689.09;;;-1.57;85.98
71857;BME280;63344;46.980;28.882;2022-12-29T06:41:02;101678.84;;;-1.51;86.12
71857;BME280;63344;46.980;28.882;2022-12-29T06:43:34;101678.06;;;-1.47;85.98
71857;BME280;63344;46.980;28.882;2022-12-29T06:46:13;101686.22;;;-1.35;85.96
71857;BME280;63344;46.980;28.882;2022-12-29T06:48:59;101680.00;;;-1.40;85.89
71857;BME280;63344;46.980;28.882;2022-12-29T06:51:27;101692.34;;;-1.33;85.46
71857;BME280;63344;46.980;28.882;2022-12-29T06:54:33;101702.94;;;-1.27;85.72
71857;BME280;63344;46.980;28.882;2022-12-29T06:57:02;101696.00;;;-1.26;85.71
71857;BME280;63344;46.980;28.882;2022-12-29T06:59:33;101684.78;;;-1.24;85.48
71857;BME280;63344;46.980;28.882;2022-12-29T07:02:00;101687.41;;;-1.24;85.53
71857;BME280;63344;46.980;28.882;2022-12-29T07:04:29;101683.38;;;-1.11;85.71
71857;BME280;63344;46.980;28.882;2022-12-29T07:06:56;101688.00;;;-1.01;85.20
71857;BME280;63344;46.980;28.882;2022-12-29T07:09:24;101676.88;;;-0.93;84.97
71857;BME280;63344;46.980;28.882;2022-12-29T07:11:54;101661.28;;;-0.92;84.95
71857;BME280;63344;46.980;28.882;2022-12-29T07:14:24;101668.59;;;-0.77;84.67
71857;BME280;63344;46.980;28.882;2022-12-29T07:17:00;101661.72;;;-0.73;83.82
71857;BME280;63344;46.980;28.882;2022-12-29T07:19:27;101663.41;;;-0.75;83.85
71857;BME280;63344;46.980;28.882;2022-12-29T07:21:59;101655.50;;;-0.78;83.68
71857;BME280;63344;46.980;28.882;2022-12-29T07:24:50;101657.31;;;-0.76;83.73
71857;BME280;63344;46.980;28.882;2022-12-29T07:28:14;101651.50;;;-0.66;83.96
71857;BME280;63344;46.980;28.882;2022-12-29T07:30:48;101658.78;;;-0.51;83.94
71857;BME280;63344;46.980;28.882;2022-12-29T07:33:15;101663.50;;;-0.34;83.79
71857;BME280;63344;46.980;28.882;2022-12-29T07:35:44;101652.41;;;-0.26;83.58
71857;BME280;63344;46.980;28.882;2022-12-29T07:38:36;101650.00;;;-0.15;83.31
71857;BME280;63344;46.980;28.882;2022-12-29T07:41:57;101659.94;;;0.00;83.05
71857;BME280;63344;46.980;28.882;2022-12-29T07:44:37;101661.72;;;0.03;82.99
71857;BME280;63344;46.980;28.882;2022-12-29T07:47:04;101667.16;;;0.13;83.12
71857;BME280;63344;46.980;28.882;2022-12-29T07:49:32;101661.09;;;0.16;83.07
71857;BME280;63344;46.980;28.882;2022-12-29T07:51:59;101677.06;;;0.28;82.75
71857;BME280;63344;46.980;28.882;2022-12-29T07:54:27;101685.09;;;0.39;82.48
71857;BME280;63344;46.980;28.882;2022-12-29T07:56:58;101682.63;;;0.47;82.30
71857;BME280;63344;46.980;28.882;2022-12-29T07:59:27;101680.19;;;0.56;81.27
71857;BME280;63344;46.980;28.882;2022-12-29T08:01:57;101680.44;;;0.68;80.68
71857;BME280;63344;46.980;28.882;2022-12-29T08:04:28;101684.06;;;0.76;80.95
71857;BME280;63344;46.980;28.882;2022-12-29T08:07:04;101681.59;;;0.84;80.80
71857;BME280;63344;46.980;28.882;2022-12-29T08:09:34;101681.78;;;0.95;80.31
71857;BME280;63344;46.980;28.882;2022-12-29T08:12:17;101685.53;;;1.09;78.94
71857;BME280;63344;46.980;28.882;2022-12-29T08:14:48;101682.28;;;1.23;78.57
71857;BME280;63344;46.980;28.882;2022-12-29T08:17:15;101690.25;;;1.30;78.40
71857;BME280;63344;46.980;28.882;2022-12-29T08:19:43;101686.81;;;1.34;78.27
71857;BME280;63344;46.980;28.882;2022-12-29T08:22:11;101680.75;;;1.37;77.91
71857;BME280;63344;46.980;28.882;2022-12-29T08:24:38;101679.16;;;1.47;77.88
71857;BME280;63344;46.980;28.882;2022-12-29T08:27:07;101684.56;;;1.57;77.73
71857;BME280;63344;46.980;28.882;2022-12-29T08:29:46;101676.75;;;1.61;77.58
71857;BME280;63344;46.980;28.882;2022-12-29T08:32:15;101686.50;;;1.71;76.90
71857;BME280;63344;46.980;28.882;2022-12-29T08:35:01;101681.34;;;1.74;76.07
71857;BME280;63344;46.980;28.882;2022-12-29T08:37:51;101671.84;;;1.84;75.60
71857;BME280;63344;46.980;28.882;2022-12-29T08:40:35;101667.63;;;1.92;75.39
71857;BME280;63344;46.980;28.882;2022-12-29T08:43:11;101670.38;;;2.03;75.43
71857;BME280;63344;46.980;28.882;2022-12-29T08:46:12;101667.91;;;2.15;74.71
71857;BME280;63344;46.980;28.882;2022-12-29T08:48:43;101654.81;;;2.16;74.39
71857;BME280;63344;46.980;28.882;2022-12-29T08:51:11;101648.00;;;2.28;74.29
71857;BME280;63344;46.980;28.882;2022-12-29T08:53:43;101637.59;;;2.37;74.42
71857;BME280;63344;46.980;28.882;2022-12-29T08:56:20;101630.69;;;2.45;74.32
71857;BME280;63344;46.980;28.882;2022-12-29T08:58:52;101650.16;;;2.67;73.45
71857;BME280;63344;46.980;28.882;2022-12-29T09:01:21;101633.63;;;2.77;72.61
71857;BME280;63344;46.980;28.882;2022-12-29T09:03:56;101629.34;;;2.87;72.79
71857;BME280;63344;46.980;28.882;2022-12-29T09:06:47;101614.59;;;2.98;72.67
71857;BME280;63344;46.980;28.882;2022-12-29T09:09:17;101602.41;;;3.05;71.88
71857;BME280;63344;46.980;28.882;2022-12-29T09:11:45;101612.13;;;3.18;71.62
71857;BME280;63344;46.980;28.882;2022-12-29T09:14:16;101600.81;;;3.26;70.63
71857;BME280;63344;46.980;28.882;2022-12-29T09:17:03;101588.63;;;3.37;70.78
71857;BME280;63344;46.980;28.882;2022-12-29T09:19:50;101596.63;;;3.54;69.63
71857;BME280;63344;46.980;28.882;2022-12-29T09:22:18;101579.16;;;3.62;69.51
71857;BME280;63344;46.980;28.882;2022-12-29T09:24:49;101573.97;;;3.79;69.51
71857;BME280;63344;46.980;28.882;2022-12-29T09:27:16;101574.03;;;3.90;68.59
71857;BME280;63344;46.980;28.882;2022-12-29T09:29:44;101567.06;;;3.98;67.56
71857;BME280;63344;46.980;28.882;2022-12-29T09:32:11;101549.63;;;5.22;66.26
71857;BME280;63344;46.980;28.882;2022-12-29T09:34:45;101540.84;;;7.74;59.74
71857;BME280;63344;46.980;28.882;2022-12-29T09:37:12;101518.81;;;9.43;53.76
71857;BME280;63344;46.980;28.882;2022-12-29T09:39:41;101525.91;;;10.64;50.27
71857;BME280;63344;46.980;28.882;2022-12-29T09:42:16;101529.53;;;11.62;48.95
71857;BME280;63344;46.980;28.882;2022-12-29T09:44:56;101530.06;;;12.62;44.84
71857;BME280;63344;46.980;28.882;2022-12-29T09:47:28;101515.97;;;13.37;43.00
71857;BME280;63344;46.980;28.882;2022-12-29T09:50:01;101509.72;;;14.09;42.49
71857;BME280;63344;46.980;28.882;2022-12-29T09:52:39;101514.66;;;15.27;41.47
71857;BME280;63344;46.980;28.882;2022-12-29T09:55:14;101511.56;;;15.57;37.83
71857;BME280;63344;46.980;28.882;2022-12-29T09:57:46;101513.47;;;15.73;38.39
71857;BME280;63344;46.980;28.882;2022-12-29T10:00:18;101513.94;;;15.63;37.28
71857;BME280;63344;46.980;28.882;2022-12-29T10:02:52;101515.31;;;15.52;37.06
71857;BME280;63344;46.980;28.882;2022-12-29T10:08:27;101528.50;;;14.51;38.62
71857;BME280;63344;46.980;28.882;2022-12-29T10:11:06;101525.66;;;14.12;39.21
71857;BME280;63344;46.980;28.882;2022-12-29T10:13:50;101515.09;;;14.53;39.00
71857;BME280;63344;46.980;28.882;2022-12-29T10:19:17;101526.06;;;14.69;37.62
71857;BME280;63344;46.980;28.882;2022-12-29T10:24:34;101513.91;;;13.92;38.55
71857;BME280;63344;46.980;28.882;2022-12-29T10:27:10;101516.75;;;13.88;38.58
71857;BME280;63344;46.980;28.882;2022-12-29T10:29:50;101524.09;;;14.28;37.96
71857;BME280;63344;46.980;28.882;2022-12-29T10:32:34;101522.88;;;14.13;37.58
71857;BME280;63344;46.980;28.882;2022-12-29T10:35:18;101520.31;;;13.40;39.00
71857;BME280;63344;46.980;28.882;2022-12-29T10:37:58;101521.19;;;12.05;41.01
71857;BME280;63344;46.980;28.882;2022-12-29T10:43:49;101507.38;;;9.83;45.68
71857;BME280;63344;46.980;28.882;2022-12-29T10:46:37;101512.00;;;9.28;46.51
71857;BME280;63344;46.980;28.882;2022-12-29T10:49:06;101505.94;;;8.73;47.97
71857;BME280;63344;46.980;28.882;2022-12-29T10:51:48;101513.72;;;8.27;48.90
71857;BME280;63344;46.980;28.882;2022-12-29T10:57:00;101513.28;;;7.95;50.43
71857;BME280;63344;46.980;28.882;2022-12-29T10:59:31;101492.38;;;7.77;51.04
71857;BME280;63344;46.980;28.882;2022-12-29T11:07:16;101491.94;;;7.41;52.76
71857;BME280;63344;46.980;28.882;2022-12-29T11:09:54;101492.81;;;7.40;52.42
71857;BME280;63344;46.980;28.882;2022-12-29T11:12:27;101487.53;;;7.40;52.55
71857;BME280;63344;46.980;28.882;2022-12-29T11:15:14;101494.56;;;7.41;53.24
71857;BME280;63344;46.980;28.882;2022-12-29T11:18:32;101484.03;;;7.38;53.29
71857;BME280;63344;46.980;28.882;2022-12-29T11:21:35;101487.50;;;7.42;53.72
71857;BME280;63344;46.980;28.882;2022-12-29T11:24:36;101484.09;;;7.30;52.82
71857;BME280;63344;46.980;28.882;2022-12-29T11:28:12;101481.72;;;7.07;53.32
71857;BME280;63344;46.980;28.882;2022-12-29T11:30:42;101480.91;;;7.01;53.92
71857;BME280;63344;46.980;28.882;2022-12-29T11:33:10;101491.53;;;6.94;53.94
71857;BME280;63344;46.980;28.882;2022-12-29T11:35:41;101493.31;;;6.91;54.65
71857;BME280;63344;46.980;28.882;2022-12-29T11:38:36;101482.75;;;6.94;54.64
71857;BME280;63344;46.980;28.882;2022-12-29T11:41:05;101480.09;;;6.92;55.03
71857;BME280;63344;46.980;28.882;2022-12-29T11:43:41;101473.09;;;6.91;55.31
71857;BME280;63344;46.980;28.882;2022-12-29T11:46:32;101470.38;;;6.97;55.14
71857;BME280;63344;46.980;28.882;2022-12-29T11:49:01;101472.09;;;7.03;55.12
71857;BME280;63344;46.980;28.882;2022-12-29T11:51:34;101460.63;;;7.06;54.75
71857;BME280;63344;46.980;28.882;2022-12-29T11:54:05;101462.31;;;7.10;55.48
71857;BME280;63344;46.980;28.882;2022-12-29T11:56:41;101461.41;;;7.14;55.40
71857;BME280;63344;46.980;28.882;2022-12-29T11:59:34;101456.13;;;7.14;55.35
71857;BME280;63344;46.980;28.882;2022-12-29T12:02:35;101449.91;;;7.20;55.41
71857;BME280;63344;46.980;28.882;2022-12-29T12:11:22;101436.34;;;7.47;54.99
71857;BME280;63344;46.980;28.882;2022-12-29T12:16:42;101427.41;;;7.57;54.72
71857;BME280;63344;46.980;28.882;2022-12-29T12:21:58;101440.72;;;8.68;53.46
71857;BME280;63344;46.980;28.882;2022-12-29T12:24:54;101434.59;;;8.64;53.03
71857;BME280;63344;46.980;28.882;2022-12-29T12:28:13;101427.50;;;8.66;53.39
71857;BME280;63344;46.980;28.882;2022-12-29T12:34:06;101427.97;;;9.35;52.34
71857;BME280;63344;46.980;28.882;2022-12-29T12:51:58;101440.72;;;8.68;52.97
71857;BME280;63344;46.980;28.882;2022-12-29T12:57:17;101427.97;;;8.37;54.57
71857;BME280;63344;46.980;28.882;2022-12-29T13:16:51;101420.66;;;7.35;58.00
71857;BME280;63344;46.980;28.882;2022-12-29T13:27:36;101411.50;;;6.89;59.58
71857;BME280;63344;46.980;28.882;2022-12-29T13:33:38;101419.50;;;6.82;60.67
71857;BME280;63344;46.980;28.882;2022-12-29T13:39:05;101420.56;;;6.65;61.34
71857;BME280;63344;46.980;28.882;2022-12-29T13:42:02;101423.19;;;6.65;61.74
71857;BME280;63344;46.980;28.882;2022-12-29T13:47:36;101419.75;;;6.54;62.12
71857;BME280;63344;46.980;28.882;2022-12-29T13:50:19;101415.47;;;6.45;62.43
71857;BME280;63344;46.980;28.882;2022-12-29T13:56:34;101407.72;;;6.24;63.35
71857;BME280;63344;46.980;28.882;2022-12-29T13:59:52;101428.81;;;6.22;63.71
71857;BME280;63344;46.980;28.882;2022-12-29T14:08:05;101429.88;;;5.96;64.80
71857;BME280;63344;46.980;28.882;2022-12-29T14:10:35;101423.75;;;5.88;65.26
71857;BME280;63344;46.980;28.882;2022-12-29T14:13:15;101434.34;;;5.84;65.75
71857;BME280;63344;46.980;28.882;2022-12-29T14:15:45;101422.09;;;5.72;65.73
71857;BME280;63344;46.980;28.882;2022-12-29T14:18:22;101439.69;;;5.71;66.07
71857;BME280;63344;46.980;28.882;2022-12-29T14:21:10;101433.56;;;5.68;66.13
71857;BME280;63344;46.980;28.882;2022-12-29T14:23:52;101443.19;;;5.69;66.70
71857;BME280;63344;46.980;28.882;2022-12-29T14:32:00;101445.88;;;5.61;66.31
71857;BME280;63344;46.980;28.882;2022-12-29T14:34:39;101443.28;;;5.53;66.81
71857;BME280;63344;46.980;28.882;2022-12-29T14:37:38;101429.25;;;5.48;66.59
71857;BME280;63344;46.980;28.882;2022-12-29T14:40:36;101432.78;;;5.47;66.61
71857;BME280;63344;46.980;28.882;2022-12-29T14:43:14;101446.78;;;5.55;66.93
71857;BME280;63344;46.980;28.882;2022-12-29T14:45:52;101445.03;;;5.57;66.80
71857;BME280;63344;46.980;28.882;2022-12-29T14:48:42;101431.00;;;5.55;66.75
71857;BME280;63344;46.980;28.882;2022-12-29T14:51:19;101435.31;;;5.61;66.52
71857;BME280;63344;46.980;28.882;2022-12-29T14:53:50;101428.31;;;5.60;66.60
71857;BME280;63344;46.980;28.882;2022-12-29T14:56:23;101423.13;;;5.49;66.67
71857;BME280;63344;46.980;28.882;2022-12-29T15:01:43;101412.66;;;5.34;67.06
71857;BME280;63344;46.980;28.882;2022-12-29T15:04:31;101410.03;;;5.23;67.32
71857;BME280;63344;46.980;28.882;2022-12-29T15:07:00;101404.78;;;5.18;67.52
71857;BME280;63344;46.980;28.882;2022-12-29T15:09:36;101406.56;;;5.16;67.31
71857;BME280;63344;46.980;28.882;2022-12-29T15:15:27;101411.84;;;5.10;67.79
71857;BME280;63344;46.980;28.882;2022-12-29T15:18:13;101402.25;;;5.00;67.94
71857;BME280;63344;46.980;28.882;2022-12-29T15:20:42;101406.63;;;4.95;68.32
71857;BME280;63344;46.980;28.882;2022-12-29T15:23:32;101392.63;;;4.91;68.70
71857;BME280;63344;46.980;28.882;2022-12-29T15:28:43;101408.44;;;4.84;68.91
71857;BME280;63344;46.980;28.882;2022-12-29T15:31:24;101397.91;;;4.74;69.53
71857;BME280;63344;46.980;28.882;2022-12-29T15:34:11;101402.31;;;4.68;69.49
71857;BME280;63344;46.980;28.882;2022-12-29T15:36:40;101408.47;;;4.62;69.50
71857;BME280;63344;46.980;28.882;2022-12-29T15:39:19;101401.44;;;4.64;69.79
71857;BME280;63344;46.980;28.882;2022-12-29T15:42:07;101401.44;;;4.61;69.41
71857;BME280;63344;46.980;28.882;2022-12-29T15:44:42;101403.22;;;4.57;69.41
71857;BME280;63344;46.980;28.882;2022-12-29T15:47:18;101405.84;;;4.54;69.70